Time;durP1;ratioP1;P1;durP2;ratioP2;P2;SDS_P1;SDS_P2;PMS_P1;PMS_P2;Temp;Humidity;BMP_temperature;BMP_pressure;BME280_temperature;BME280_humidity;BME280_pressure;Samples;Min_cycle;Max_cycle;Signal;HPM_P1;HPM_P2
2022/07/02 00:01:30;;;;;;;9.93;6.72;;;;;;;17.01;87.94;99746.47;8394083;28;20095;-73
2022/07/02 00:05:32;;;;;;;8.38;5.70;;;;;;;16.96;87.86;99760.31;8386702;28;20078;-73
2022/07/02 00:09:33;;;;;;;7.90;5.55;;;;;;;16.97;87.88;99764.66;8343648;28;20048;-72
2022/07/02 00:13:34;;;;;;;8.93;6.18;;;;;;;16.94;88.11;99746.22;8376215;28;20508;-72
2022/07/02 00:17:37;;;;;;;10.32;6.55;;;;;;;16.95;88.13;99726.00;8394852;28;20049;-73
2022/07/02 00:21:39;;;;;;;10.57;5.90;;;;;;;16.97;87.75;99712.81;8394584;28;20533;-74
2022/07/02 00:25:43;;;;;;;9.20;6.35;;;;;;;16.93;87.81;99733.69;8368755;28;20407;-72
2022/07/02 00:29:48;;;;;;;8.15;6.40;;;;;;;16.97;87.90;99733.84;8386072;28;20052;-74
2022/07/02 00:33:50;;;;;;;12.82;6.55;;;;;;;16.94;87.84;99729.84;8392336;28;20090;-72
2022/07/02 00:37:50;;;;;;;8.65;5.75;;;;;;;16.95;87.52;99725.19;8395052;28;20102;-74
2022/07/02 00:41:53;;;;;;;6.68;5.47;;;;;;;16.93;87.89;99727.44;8376307;28;20549;-74
2022/07/02 00:45:54;;;;;;;8.73;5.68;;;;;;;16.89;87.80;99732.78;8360892;28;20052;-73
2022/07/02 00:49:55;;;;;;;10.63;6.68;;;;;;;16.88;88.31;99736.63;8350601;28;20492;-74
2022/07/02 00:53:59;;;;;;;8.98;6.32;;;;;;;16.84;87.85;99752.09;8347678;28;20139;-72
2022/07/02 00:58:01;;;;;;;10.82;6.43;;;;;;;16.77;88.55;99757.25;8359155;28;20059;-73
2022/07/02 01:02:04;;;;;;;7.22;6.28;;;;;;;16.77;88.38;99757.25;8386152;28;20630;-72
2022/07/02 01:06:05;;;;;;;11.85;6.57;;;;;;;16.70;88.80;99773.38;8389182;28;20053;-73
2022/07/02 01:10:16;;;;;;;9.93;6.10;;;;;;;16.75;88.71;99786.81;8393064;28;20045;-73
2022/07/02 01:14:18;;;;;;;11.30;5.78;;;;;;;16.72;88.75;99784.75;8362839;28;20037;-74
2022/07/02 01:18:22;;;;;;;8.32;5.00;;;;;;;16.74;87.95;99779.78;8361825;28;20052;-73
2022/07/02 01:22:25;;;;;;;6.68;4.60;;;;;;;16.68;88.12;99786.53;8382802;28;20048;-73
2022/07/02 01:26:26;;;;;;;6.90;4.38;;;;;;;16.68;87.56;99792.00;8379888;28;20056;-74
2022/07/02 01:30:27;;;;;;;4.45;3.83;;;;;;;16.69;87.78;99793.59;8375390;28;20494;-73
2022/07/02 01:34:29;;;;;;;11.27;4.15;;;;;;;16.60;87.34;99801.06;8394594;28;20044;-73
2022/07/02 01:38:30;;;;;;;5.53;3.88;;;;;;;16.61;87.59;99821.72;8393749;28;20052;-73
2022/07/02 01:42:31;;;;;;;9.38;3.95;;;;;;;16.59;87.26;99832.19;8350568;28;20408;-73
2022/07/02 01:46:32;;;;;;;5.30;3.63;;;;;;;16.57;87.16;99837.13;8393085;28;20052;-73
2022/07/02 01:50:36;;;;;;;9.45;4.55;;;;;;;16.50;87.00;99839.59;8356503;28;20148;-74
2022/07/02 01:54:37;;;;;;;10.20;4.10;;;;;;;16.46;86.48;99856.59;8374201;28;20098;-73
2022/07/02 01:58:41;;;;;;;7.28;4.03;;;;;;;16.38;86.32;99860.19;8393375;28;20098;-74
2022/07/02 02:02:43;;;;;;;4.72;4.10;;;;;;;16.35;86.18;99866.25;8389938;28;20454;-73
2022/07/02 02:06:43;;;;;;;8.90;5.07;;;;;;;16.33;86.14;99868.53;8380795;28;20087;-73
2022/07/02 02:10:44;;;;;;;6.43;4.50;;;;;;;16.31;86.30;99881.69;8390358;28;20040;-74
2022/07/02 02:14:45;;;;;;;9.20;5.47;;;;;;;16.28;86.63;99887.00;8391344;28;20110;-71
2022/07/02 02:18:47;;;;;;;6.50;5.38;;;;;;;16.26;86.77;99878.34;8380151;28;20041;-73
2022/07/02 02:22:48;;;;;;;7.60;5.18;;;;;;;16.25;86.84;99893.88;8393003;28;20523;-72
2022/07/02 02:26:49;;;;;;;8.00;5.65;;;;;;;16.25;86.87;99893.88;8391885;28;20040;-72
2022/07/02 02:30:50;;;;;;;15.20;4.90;;;;;;;16.23;87.09;99901.59;8341163;28;20095;-72
2022/07/02 02:34:51;;;;;;;7.50;5.82;;;;;;;16.21;87.43;99903.84;8340151;28;20049;-74
2022/07/02 02:38:54;;;;;;;8.50;5.65;;;;;;;16.16;87.48;99901.31;8398097;28;20533;-73
2022/07/02 02:42:55;;;;;;;6.68;5.10;;;;;;;16.16;87.83;99906.75;8399320;28;20453;-72
2022/07/02 02:46:56;;;;;;;7.10;5.32;;;;;;;16.16;87.84;99895.84;8399268;28;20121;-74
2022/07/02 02:51:00;;;;;;;8.98;5.80;;;;;;;16.11;88.27;99898.75;8398741;28;20098;-73
2022/07/02 02:55:00;;;;;;;10.25;5.65;;;;;;;16.09;88.21;99895.56;8340442;28;20066;-73
2022/07/02 02:59:02;;;;;;;9.25;5.60;;;;;;;16.06;88.94;99896.22;8398796;28;20060;-73
2022/07/02 03:03:02;;;;;;;7.78;5.57;;;;;;;16.02;88.82;99900.72;8396273;28;20127;-73
2022/07/02 03:07:04;;;;;;;15.25;6.78;;;;;;;15.98;89.12;99905.19;8397964;28;20515;-73
2022/07/02 03:11:05;;;;;;;8.57;5.07;;;;;;;16.00;89.27;99902.97;8386824;28;20055;-72
2022/07/02 03:15:06;;;;;;;8.90;5.57;;;;;;;15.99;89.31;99895.91;8397724;28;20139;-73
2022/07/02 03:19:07;;;;;;;7.95;4.80;;;;;;;16.00;89.39;99902.97;8345949;28;20410;-73
2022/07/02 03:23:08;;;;;;;6.97;5.10;;;;;;;16.03;89.26;99913.19;8395982;28;20056;-72
2022/07/02 03:27:09;;;;;;;7.25;5.05;;;;;;;15.98;88.99;99911.44;8388558;28;20135;-73
2022/07/02 03:31:10;;;;;;;6.53;5.28;;;;;;;15.97;88.94;99919.94;8332452;28;20516;-72
2022/07/02 03:35:11;;;;;;;10.05;5.43;;;;;;;15.95;89.32;99916.75;8345381;28;20175;-74
2022/07/02 03:39:12;;;;;;;7.25;5.57;;;;;;;15.94;89.73;99909.69;8396987;28;20040;-73
2022/07/02 03:43:13;;;;;;;7.40;5.57;;;;;;;15.95;89.98;99916.75;8397430;28;20619;-73
2022/07/02 03:47:14;;;;;;;8.40;6.10;;;;;;;15.96;90.26;99923.81;8396975;28;20410;-73
2022/07/02 03:51:15;;;;;;;8.35;6.35;;;;;;;15.91;90.98;99921.25;8382678;28;20130;-73
2022/07/02 03:55:16;;;;;;;10.07;7.30;;;;;;;15.87;91.97;99936.63;8390937;28;20044;-72
2022/07/02 03:59:17;;;;;;;8.65;6.43;;;;;;;15.87;92.72;99931.19;8398503;28;20174;-72
2022/07/02 04:03:18;;;;;;;8.00;6.00;;;;;;;15.87;93.03;99931.97;8359888;28;20051;-72
2022/07/02 04:07:19;;;;;;;10.68;6.43;;;;;;;15.80;93.82;99930.91;8362271;28;20124;-73
2022/07/02 04:11:20;;;;;;;8.30;6.50;;;;;;;15.78;94.32;99933.13;8326301;28;20049;-73
2022/07/02 04:15:21;;;;;;;10.68;6.40;;;;;;;15.82;94.21;99939.53;8375516;28;20140;-72
2022/07/02 04:19:22;;;;;;;11.43;6.30;;;;;;;15.85;94.62;99939.69;8387538;28;20048;-73
2022/07/02 04:23:23;;;;;;;11.52;6.05;;;;;;;15.93;94.36;99925.25;8385342;28;20136;-74
2022/07/02 04:27:24;;;;;;;12.48;6.15;;;;;;;16.02;94.09;99933.41;8372662;28;20044;-73
2022/07/02 04:31:25;;;;;;;10.70;5.57;;;;;;;16.11;92.48;99947.00;8377985;28;20049;-72
2022/07/02 04:35:26;;;;;;;7.97;5.40;;;;;;;16.13;92.95;99945.53;8383452;28;20329;-73
2022/07/02 04:39:27;;;;;;;10.00;5.70;;;;;;;16.17;92.46;99957.41;8358951;28;20045;-73
2022/07/02 04:43:28;;;;;;;7.20;4.65;;;;;;;16.22;92.10;99968.13;8375110;28;20060;-72
2022/07/02 04:47:29;;;;;;;6.18;4.70;;;;;;;16.24;91.40;99974.03;8353719;28;20166;-74
2022/07/02 04:51:30;;;;;;;8.95;4.40;;;;;;;16.34;90.89;99979.16;8326950;28;20055;-74
2022/07/02 04:55:31;;;;;;;10.00;4.63;;;;;;;16.39;89.73;99987.16;8388669;28;20040;-73
2022/07/02 04:59:32;;;;;;;4.53;3.65;;;;;;;16.38;88.22;99996.47;8386509;28;20044;-74
2022/07/02 05:03:32;;;;;;;3.95;3.00;;;;;;;16.39;88.41;99998.06;8342500;28;20054;-73
2022/07/02 05:07:34;;;;;;;9.90;3.42;;;;;;;16.43;87.52;100003.66;8394343;28;20416;-73
2022/07/02 05:11:34;;;;;;;7.30;3.30;;;;;;;16.52;86.66;100011.81;8393279;28;20044;-73
2022/07/02 05:15:36;;;;;;;7.20;3.00;;;;;;;16.56;86.41;100023.66;8393679;28;20468;-74
2022/07/02 05:19:37;;;;;;;6.10;2.63;;;;;;;16.66;85.73;100023.34;8358149;28;20495;-74
2022/07/02 05:23:38;;;;;;;4.95;2.50;;;;;;;16.65;85.16;100033.47;8357270;28;20097;-73
2022/07/02 05:27:45;;;;;;;6.72;2.80;;;;;;;16.64;84.32;100033.78;8374196;28;20056;-72
2022/07/02 05:31:46;;;;;;;5.35;2.55;;;;;;;16.74;83.56;100036.16;8372002;28;20454;-73
2022/07/02 05:35:47;;;;;;;5.20;2.67;;;;;;;16.82;83.23;100043.50;8393015;28;20080;-73
2022/07/02 05:39:48;;;;;;;7.90;2.28;;;;;;;16.81;82.71;100047.38;8393100;28;20051;-72
2022/07/02 05:43:49;;;;;;;6.13;2.50;;;;;;;16.89;82.78;100043.78;8391173;28;20136;-73
2022/07/02 05:47:50;;;;;;;4.72;2.65;;;;;;;16.88;82.24;100053.09;8384348;28;20044;-74
2022/07/02 05:51:50;;;;;;;5.50;2.22;;;;;;;16.85;81.43;100061.94;8342803;28;20075;-74
2022/07/02 05:55:52;;;;;;;6.07;2.30;;;;;;;16.92;81.58;100064.94;8393034;28;20048;-73
2022/07/02 05:59:52;;;;;;;5.63;2.40;;;;;;;17.02;80.13;100070.06;8392506;28;20075;-74
2022/07/02 06:03:53;;;;;;;6.95;2.13;;;;;;;17.09;80.56;100062.16;8393437;28;20049;-73
2022/07/02 06:07:54;;;;;;;4.55;2.30;;;;;;;17.17;80.13;100061.31;8389608;28;20051;-73
2022/07/02 06:11:56;;;;;;;3.80;2.20;;;;;;;17.21;79.79;100078.63;8396590;28;20569;-76
2022/07/02 06:15:56;;;;;;;5.25;2.10;;;;;;;17.22;79.01;100074.78;8390302;28;20049;-75
2022/07/02 06:20:00;;;;;;;3.75;1.95;;;;;;;17.32;78.56;100081.78;8392342;28;20139;-75
2022/07/02 06:24:02;;;;;;;3.05;1.70;;;;;;;17.39;77.83;100084.00;8337260;28;20052;-76
2022/07/02 06:28:03;;;;;;;5.55;1.88;;;;;;;17.42;77.94;100088.81;8398140;28;20065;-75
2022/07/02 06:32:05;;;;;;;6.30;1.67;;;;;;;17.48;76.43;100095.69;8328555;28;20090;-75
2022/07/02 06:36:07;;;;;;;4.78;1.40;;;;;;;17.54;76.14;100102.56;8398846;28;20052;-77
2022/07/02 06:40:09;;;;;;;2.95;1.40;;;;;;;17.60;74.90;100106.72;8334025;28;20051;-78
2022/07/02 06:44:10;;;;;;;7.13;1.30;;;;;;;17.55;73.94;100109.63;8347447;28;20048;-76
2022/07/02 06:48:11;;;;;;;7.85;1.63;;;;;;;17.49;74.40;100105.47;8337087;28;20480;-75
2022/07/02 06:52:13;;;;;;;3.80;1.58;;;;;;;17.28;74.52;100105.44;8395628;28;20051;-77
2022/07/02 06:56:14;;;;;;;5.07;1.50;;;;;;;16.96;75.87;100115.03;8393787;28;20041;-78
2022/07/02 07:00:15;;;;;;;4.53;1.40;;;;;;;16.79;76.71;100104.16;8391695;28;20071;-77
2022/07/02 07:04:16;;;;;;;1.83;1.10;;;;;;;16.85;77.02;100100.16;8398627;28;20422;-76
2022/07/02 07:08:18;;;;;;;5.15;1.38;;;;;;;17.12;76.74;100102.44;8397295;28;20076;-78
2022/07/02 07:12:19;;;;;;;5.78;1.20;;;;;;;17.43;74.07;100102.13;8345673;28;20480;-78
2022/07/02 07:16:20;;;;;;;2.22;1.00;;;;;;;17.62;72.54;100101.72;8385832;28;20041;-78
2022/07/02 07:20:27;;;;;;;3.22;1.00;;;;;;;17.79;72.17;100115.28;8386296;28;20053;-78
2022/07/02 07:24:30;;;;;;;2.90;1.02;;;;;;;17.92;70.39;100119.69;8383724;28;20051;-78
2022/07/02 07:28:30;;;;;;;5.50;1.20;;;;;;;18.04;69.73;100117.00;8397057;28;20094;-77
2022/07/02 07:32:32;;;;;;;2.50;1.10;;;;;;;18.20;70.01;100119.94;8394976;28;20094;-77
2022/07/02 07:36:34;;;;;;;2.00;0.90;;;;;;;18.37;69.51;100121.72;8396117;28;20045;-78
2022/07/02 07:40:35;;;;;;;3.03;1.00;;;;;;;18.58;67.88;100133.44;8379213;28;20504;-78
2022/07/02 07:44:39;;;;;;;2.78;1.00;;;;;;;18.49;66.94;100132.72;8391556;28;20052;-75
2022/07/02 07:48:40;;;;;;;4.50;1.13;;;;;;;18.55;66.51;100143.16;8379729;28;20045;-77
2022/07/02 07:52:41;;;;;;;3.42;1.00;;;;;;;18.69;64.87;100148.31;8387658;28;20052;-76
2022/07/02 07:56:43;;;;;;;1.30;0.80;;;;;;;18.84;62.36;100155.88;8393457;28;20446;-76
2022/07/02 08:00:45;;;;;;;1.67;0.75;;;;;;;19.12;63.14;100149.78;8367213;28;20496;-78
2022/07/02 08:04:47;;;;;;;4.45;1.10;;;;;;;19.26;61.55;100161.19;8390729;28;20051;-76
2022/07/02 08:08:48;;;;;;;4.32;1.00;;;;;;;19.33;61.30;100164.19;8391865;28;20041;-77
2022/07/02 08:12:50;;;;;;;3.42;0.95;;;;;;;19.27;62.43;100173.75;8375087;28;20049;-77
2022/07/02 08:16:51;;;;;;;4.53;0.82;;;;;;;19.22;63.35;100182.19;8397706;28;20491;-78
2022/07/02 08:20:52;;;;;;;8.15;0.90;;;;;;;18.99;62.25;100185.34;8363157;28;20495;-77
2022/07/02 08:24:53;;;;;;;2.10;0.80;;;;;;;19.21;62.79;100183.34;8392113;28;20527;-77
2022/07/02 08:28:54;;;;;;;2.55;1.05;;;;;;;19.49;61.32;100175.28;8397703;28;20075;-75
2022/07/02 08:32:55;;;;;;;2.17;0.80;;;;;;;19.83;60.29;100180.28;8383867;28;20131;-77
2022/07/02 08:36:57;;;;;;;2.78;0.70;;;;;;;20.20;59.71;100183.78;8396502;28;20488;-79
2022/07/02 08:40:58;;;;;;;2.72;0.80;;;;;;;20.30;57.19;100177.81;8397342;28;20045;-77
2022/07/02 08:45:03;;;;;;;1.70;0.93;;;;;;;20.32;56.70;100185.72;8378268;28;20491;-76
2022/07/02 08:49:04;;;;;;;2.83;0.90;;;;;;;20.25;57.99;100180.78;8384177;28;20119;-76
2022/07/02 08:53:06;;;;;;;2.33;0.82;;;;;;;20.35;58.36;100185.84;8368575;28;20045;-75
2022/07/02 08:57:08;;;;;;;2.45;0.80;;;;;;;20.18;57.79;100191.56;8373824;28;20041;-76
2022/07/02 09:01:09;;;;;;;3.67;0.90;;;;;;;20.09;58.40;100199.13;8330785;28;20049;-76
2022/07/02 09:05:11;;;;;;;2.08;0.88;;;;;;;20.49;57.92;100191.72;8326491;28;20115;-76
2022/07/02 09:09:13;;;;;;;4.38;0.90;;;;;;;20.54;55.04;100190.69;8378590;28;20040;-77
2022/07/02 09:13:14;;;;;;;2.85;0.80;;;;;;;20.56;56.29;100191.94;8392583;28;20055;-76
2022/07/02 09:17:19;;;;;;;4.72;0.73;;;;;;;20.67;55.15;100191.44;8380934;28;20488;-76
2022/07/02 09:21:20;;;;;;;5.40;1.33;;;;;;;20.85;55.14;100187.22;8397196;28;20140;-76
2022/07/02 09:25:24;;;;;;;1.92;0.80;;;;;;;20.97;55.37;100189.91;8367565;28;20048;-77
2022/07/02 09:29:25;;;;;;;4.55;1.17;;;;;;;20.67;56.24;100191.44;8398502;28;20547;-76
2022/07/02 09:33:40;;;;;;;3.75;0.95;;;;;;;20.51;56.72;100194.94;8345696;28;20094;-77
2022/07/02 09:37:41;;;;;;;1.27;0.60;;;;;;;21.03;55.87;100199.50;8380074;28;20044;-77
2022/07/02 09:41:43;;;;;;;1.80;0.80;;;;;;;21.41;53.71;100180.47;8364743;28;20098;-77
2022/07/02 09:45:46;;;;;;;2.38;0.90;;;;;;;21.71;54.88;100196.53;8372294;28;20044;-75
2022/07/02 09:49:48;;;;;;;2.33;0.80;;;;;;;21.92;54.47;100197.03;8381748;28;20052;-75
2022/07/02 09:53:52;;;;;;;6.05;0.98;;;;;;;21.89;53.79;100192.22;8385922;28;20041;-76
2022/07/02 09:57:55;;;;;;;3.00;1.00;;;;;;;21.63;53.27;100194.75;8342101;28;20527;-75
2022/07/02 10:01:55;;;;;;;1.33;0.82;;;;;;;21.45;54.32;100195.13;8380570;28;20488;-76
2022/07/02 10:05:57;;;;;;;6.35;1.10;;;;;;;21.03;54.84;100205.00;8395545;28;20052;-77
2022/07/02 10:10:04;;;;;;;2.63;0.98;;;;;;;20.79;56.14;100205.09;8395419;28;20048;-75
2022/07/02 10:14:07;;;;;;;5.25;1.10;;;;;;;21.47;54.78;100192.81;8362003;28;20044;-75
2022/07/02 10:18:08;;;;;;;1.98;1.10;;;;;;;21.78;53.15;100180.97;8397468;28;20055;-75
2022/07/02 10:22:10;;;;;;;6.03;1.30;;;;;;;21.62;53.76;100182.19;8397850;28;20052;-75
2022/07/02 10:31:37;;;;;;;2.58;1.20;;;;;;;21.90;55.67;100193.81;8392765;28;20052;-74
2022/07/02 10:35:39;;;;;;;2.35;1.02;;;;;;;22.54;52.90;100184.22;8363956;28;20049;-75
2022/07/02 10:39:42;;;;;;;6.20;1.40;;;;;;;22.78;50.68;100195.00;8378891;28;20423;-75
2022/07/02 10:43:43;;;;;;;1.95;1.00;;;;;;;22.70;51.25;100187.69;8396322;28;20061;-75
2022/07/02 10:48:04;;;;;;;6.25;1.88;;;;;;;22.01;52.89;100183.91;8378924;28;20437;-74
2022/07/02 10:52:06;;;;;;;3.00;1.20;;;;;;;21.57;54.60;100185.19;8384742;28;20056;-74
2022/07/02 10:56:07;;;;;;;3.08;1.60;;;;;;;21.64;55.65;100180.66;8368677;28;20089;-74
2022/07/02 11:00:15;;;;;;;3.83;1.45;;;;;;;22.36;52.94;100177.59;8399360;28;20068;-75
2022/07/02 11:04:22;;;;;;;3.83;1.50;;;;;;;22.70;51.17;100160.16;8383067;28;20499;-76
2022/07/02 11:08:52;;;;;;;3.30;1.20;;;;;;;22.38;51.26;100164.25;8393887;28;20047;-75
2022/07/02 11:13:00;;;;;;;3.25;1.17;;;;;;;22.18;52.10;100172.50;8401213;28;20131;-75
2022/07/02 11:17:02;;;;;;;4.25;1.30;;;;;;;22.59;50.91;100170.97;8354233;28;20072;-76
2022/07/02 11:21:03;;;;;;;5.65;1.73;;;;;;;22.47;49.64;100171.13;8399532;28;20098;-75
2022/07/02 11:25:05;;;;;;;5.70;1.27;;;;;;;22.72;51.22;100174.41;8400357;28;20053;-77
2022/07/02 11:29:07;;;;;;;5.07;1.40;;;;;;;23.33;50.93;100176.28;8395466;28;20440;-76
2022/07/02 11:33:23;;;;;;;2.38;1.17;;;;;;;23.39;47.57;100163.78;8401058;28;20051;-77
2022/07/02 11:37:25;;;;;;;3.83;1.13;;;;;;;23.64;47.56;100165.00;8336257;28;20052;-76
2022/07/02 11:41:29;;;;;;;4.05;1.27;;;;;;;23.47;47.34;100165.53;8348854;28;20526;-77
2022/07/02 11:45:30;;;;;;;5.57;1.55;;;;;;;23.21;50.16;100168.22;8350403;28;20404;-78
2022/07/02 11:49:36;;;;;;;4.32;1.15;;;;;;;23.47;49.28;100160.03;8340545;28;20098;-77
2022/07/02 11:53:40;;;;;;;4.22;1.08;;;;;;;23.62;48.97;100156.31;8331627;28;20041;-77
2022/07/02 11:57:43;;;;;;;3.22;1.10;;;;;;;23.96;48.00;100146.97;8347635;28;20048;-76
2022/07/02 12:01:45;;;;;;;1.70;1.00;;;;;;;24.30;47.82;100152.56;8364738;28;20111;-76
2022/07/02 12:05:52;;;;;;;3.25;1.05;;;;;;;24.44;44.24;100144.44;8365567;28;20049;-75
2022/07/02 12:09:54;;;;;;;3.15;1.10;;;;;;;24.37;45.00;100152.66;8359866;28;20096;-76
2022/07/02 12:13:55;;;;;;;3.65;1.10;;;;;;;24.32;45.89;100144.72;8357817;28;20090;-74
2022/07/02 12:17:56;;;;;;;2.22;1.00;;;;;;;24.41;46.83;100142.47;8361512;28;20053;-77
2022/07/02 12:21:58;;;;;;;2.95;1.60;;;;;;;24.39;45.58;100147.56;8364121;28;20040;-75
2022/07/02 12:26:00;;;;;;;4.75;1.45;;;;;;;24.70;44.89;100155.41;8354970;28;20049;-76
2022/07/02 12:30:12;;;;;;;2.15;1.05;;;;;;;24.62;43.62;100153.75;8358959;28;20171;-74
2022/07/02 12:34:15;;;;;;;4.60;1.20;;;;;;;23.97;44.40;100145.81;8310511;28;20072;-76
2022/07/02 12:38:16;;;;;;;4.22;1.52;;;;;;;23.94;44.56;100143.81;8348806;28;20472;-76
2022/07/02 12:42:21;;;;;;;8.48;1.40;;;;;;;23.77;44.86;100138.81;8364850;28;20068;-76
2022/07/02 12:46:22;;;;;;;2.22;1.30;;;;;;;23.71;46.04;100143.06;8364949;28;20492;-76
2022/07/02 12:50:23;;;;;;;4.53;1.13;;;;;;;24.43;45.15;100134.56;8326635;28;20052;-75
2022/07/02 12:54:38;;;;;;;5.35;1.20;;;;;;;25.00;44.68;100135.22;8358928;28;20037;-76
2022/07/02 12:58:39;;;;;;;3.08;1.10;;;;;;;24.58;44.28;100136.34;8361969;28;20103;-77
2022/07/02 13:02:40;;;;;;;4.32;1.70;;;;;;;23.96;45.86;100141.44;8312201;28;20045;-76
2022/07/02 13:06:44;;;;;;;5.82;1.30;;;;;;;23.70;46.61;100135.94;8353341;28;20059;-77
2022/07/02 13:10:45;;;;;;;3.92;1.17;;;;;;;24.00;46.25;100139.53;8351470;28;20091;-75
2022/07/02 13:14:46;;;;;;;2.72;1.20;;;;;;;24.55;44.27;100137.09;8359627;28;20500;-76
2022/07/02 13:18:47;;;;;;;7.15;1.40;;;;;;;25.15;43.84;100120.34;8363923;28;20049;-75
2022/07/02 13:22:48;;;;;;;5.00;1.10;;;;;;;24.89;41.25;100128.81;8361603;28;20048;-75
2022/07/02 13:26:49;;;;;;;3.08;1.10;;;;;;;25.01;42.03;100120.25;8314045;28;20041;-76
2022/07/02 13:30:50;;;;;;;4.45;1.15;;;;;;;25.00;41.63;100124.16;8297050;28;20124;-75
2022/07/02 13:34:51;;;;;;;4.40;1.40;;;;;;;25.10;41.54;100123.47;8313129;28;20062;-75
2022/07/02 13:38:52;;;;;;;3.60;1.25;;;;;;;25.83;41.31;100113.34;8365120;28;20083;-76
2022/07/02 13:42:53;;;;;;;4.97;1.05;;;;;;;27.43;37.93;100122.91;8286905;28;20053;-75
2022/07/02 13:46:54;;;;;;;3.05;1.55;;;;;;;28.47;35.88;100113.91;8347101;28;20049;-76
2022/07/02 13:50:56;;;;;;;2.33;1.33;;;;;;;29.57;34.46;100127.84;8364744;28;20040;-75
2022/07/02 13:54:57;;;;;;;2.78;1.15;;;;;;;31.01;29.78;100123.69;8359346;28;20428;-74
2022/07/02 13:58:58;;;;;;;3.65;1.42;;;;;;;30.41;32.04;100116.97;8350266;28;20050;-76
2022/07/02 14:02:59;;;;;;;1.52;0.90;;;;;;;30.81;31.08;100117.25;8363771;28;20040;-75
2022/07/02 14:07:00;;;;;;;4.18;1.10;;;;;;;31.50;31.77;100115.75;8364813;28;20129;-74
2022/07/02 14:11:01;;;;;;;5.38;1.23;;;;;;;30.22;32.55;100114.84;8359918;28;20040;-76
2022/07/02 14:15:20;;;;;;;3.03;1.23;;;;;;;28.44;35.44;100114.75;8363988;28;20055;-75
2022/07/02 14:19:21;;;;;;;2.38;1.23;;;;;;;27.92;36.82;100117.28;8364441;28;20056;-75
2022/07/02 14:23:23;;;;;;;2.72;1.30;;;;;;;27.18;37.15;100117.34;8363555;28;20087;-75
2022/07/02 14:27:25;;;;;;;4.45;1.83;;;;;;;26.86;38.93;100109.00;8362940;28;20540;-75
2022/07/02 14:31:26;;;;;;;5.03;1.33;;;;;;;26.54;39.32;100105.38;8356768;28;20059;-74
2022/07/02 14:35:27;;;;;;;3.75;1.15;;;;;;;26.19;37.44;100101.28;8370137;28;20041;-74
2022/07/02 14:39:28;;;;;;;4.15;1.58;;;;;;;25.73;39.71;100105.78;8364637;28;20550;-75
2022/07/02 14:43:29;;;;;;;2.42;1.27;;;;;;;25.44;40.53;100105.56;8301939;28;20119;-74
2022/07/02 14:47:30;;;;;;;2.42;1.10;;;;;;;25.24;41.32;100102.25;8342570;28;20044;-74
2022/07/02 14:51:31;;;;;;;2.70;1.20;;;;;;;25.32;41.27;100100.34;8369024;28;20083;-75
2022/07/02 14:55:32;;;;;;;3.22;1.15;;;;;;;25.23;41.20;100097.09;8364139;28;20068;-74
2022/07/02 14:59:34;;;;;;;6.65;1.58;;;;;;;26.32;40.82;100093.44;8357118;28;20045;-75
2022/07/02 15:03:36;;;;;;;4.07;1.48;;;;;;;28.05;39.08;100093.44;8351582;28;20060;-75
2022/07/02 15:07:38;;;;;;;3.35;1.27;;;;;;;29.58;36.16;100087.69;8369774;28;20073;-76
2022/07/02 15:11:39;;;;;;;3.25;1.50;;;;;;;29.67;35.39;100085.19;8369090;28;20049;-75
2022/07/02 15:15:59;;;;;;;3.05;1.60;;;;;;;29.26;36.40;100087.16;8262579;28;20164;-77
2022/07/02 15:20:01;;;;;;;5.07;1.38;;;;;;;27.80;38.23;100076.09;8241524;28;20228;-76
2022/07/02 15:24:06;;;;;;;3.63;1.40;;;;;;;27.26;38.84;100086.47;8234051;28;20460;-77
2022/07/02 15:28:12;;;;;;;4.75;1.70;;;;;;;26.70;39.01;100078.09;8274331;28;20049;-77
2022/07/02 15:32:14;;;;;;;3.80;1.30;;;;;;;26.35;39.79;100076.84;8252030;28;20050;-77
2022/07/02 15:36:19;;;;;;;6.32;1.30;;;;;;;26.31;40.18;100076.03;8266279;28;20046;-77
2022/07/02 15:40:22;;;;;;;7.63;1.50;;;;;;;26.24;41.41;100076.00;8268031;28;20105;-78
2022/07/02 15:44:27;;;;;;;3.08;1.10;;;;;;;25.95;41.36;100068.75;8279506;28;20046;-76
2022/07/02 15:48:28;;;;;;;4.63;1.20;;;;;;;25.81;41.51;100063.13;8266842;28;20066;-75
2022/07/02 15:52:37;;;;;;;2.83;1.25;;;;;;;25.92;41.94;100066.75;8256744;28;20056;-76
2022/07/02 15:56:40;;;;;;;1.88;1.10;;;;;;;26.06;40.12;100064.06;8368018;28;20045;-75
2022/07/02 16:00:42;;;;;;;3.17;1.25;;;;;;;26.47;40.94;100057.09;8338453;28;20060;-76
2022/07/02 16:04:43;;;;;;;3.90;1.40;;;;;;;26.73;39.89;100057.91;8347207;28;20052;-76
2022/07/02 16:08:48;;;;;;;5.47;2.38;;;;;;;26.44;39.55;100049.53;8366129;28;20071;-79
2022/07/02 16:12:50;;;;;;;7.60;1.40;;;;;;;26.23;39.82;100052.25;8299371;28;20049;-79
2022/07/02 16:16:52;;;;;;;2.90;1.40;;;;;;;26.15;40.47;100039.56;8359203;28;20049;-78
2022/07/02 16:20:54;;;;;;;2.25;1.20;;;;;;;25.99;40.22;100037.13;8342990;28;20378;-77
2022/07/02 16:24:58;;;;;;;3.35;1.10;;;;;;;25.98;40.49;100045.81;8355685;28;20048;-75
2022/07/02 16:29:02;;;;;;;2.10;1.40;;;;;;;26.04;40.60;100038.72;8347680;28;20069;-75
2022/07/02 16:33:08;;;;;;;3.20;1.20;;;;;;;27.16;38.23;100042.91;8328761;28;20108;-76
2022/07/02 16:37:25;;;;;;;6.13;1.27;;;;;;;27.69;37.27;100042.03;8310422;28;20056;-76
2022/07/02 16:41:30;;;;;;;3.30;1.23;;;;;;;26.64;38.87;100043.66;8352450;28;20101;-77
2022/07/02 16:45:33;;;;;;;3.17;1.40;;;;;;;25.78;40.40;100041.78;8321925;28;20128;-77
2022/07/02 16:49:36;;;;;;;7.32;1.17;;;;;;;25.39;41.32;100042.31;8360644;28;20045;-76
2022/07/02 16:53:39;;;;;;;8.77;1.58;;;;;;;25.03;42.34;100034.97;8335320;28;20044;-77
2022/07/02 16:57:41;;;;;;;6.53;3.08;;;;;;;24.75;43.64;100036.28;8343658;28;20055;-75
2022/07/02 17:01:42;;;;;;;7.50;3.30;;;;;;;24.62;44.01;100032.22;8337186;28;20068;-76
2022/07/02 17:05:45;;;;;;;6.20;2.85;;;;;;;24.41;45.11;100026.50;8308219;28;20053;-76
2022/07/02 17:09:48;;;;;;;3.03;1.98;;;;;;;24.28;45.85;100033.44;8358644;28;20052;-76
2022/07/02 17:13:50;;;;;;;2.60;1.92;;;;;;;24.12;46.73;100027.31;8350671;28;20049;-75
2022/07/02 17:17:51;;;;;;;9.00;5.30;;;;;;;23.91;47.51;100027.88;8329340;28;20098;-75
2022/07/02 17:21:53;;;;;;;4.75;2.55;;;;;;;23.65;49.17;100020.44;8328283;28;20056;-75
2022/07/02 17:25:54;;;;;;;4.47;2.28;;;;;;;23.36;51.23;100004.69;8364194;28;20068;-75
2022/07/02 17:29:55;;;;;;;3.03;1.77;;;;;;;23.03;53.23;100014.44;8342934;28;20049;-75
2022/07/02 17:34:00;;;;;;;3.17;2.05;;;;;;;22.71;54.67;99996.59;8348140;28;20048;-75
2022/07/02 17:38:02;;;;;;;3.83;2.17;;;;;;;22.42;56.40;99994.50;8287354;28;20136;-76
2022/07/02 17:42:04;;;;;;;5.97;2.60;;;;;;;22.22;58.00;99986.25;8275598;28;20464;-75
2022/07/02 17:46:06;;;;;;;5.35;2.10;;;;;;;22.03;59.12;99986.31;8244838;28;20052;-74
2022/07/02 17:50:08;;;;;;;8.75;2.10;;;;;;;21.89;59.67;99988.72;8294141;28;20045;-75
2022/07/02 17:54:10;;;;;;;6.43;3.05;;;;;;;21.71;60.54;99987.59;8276038;28;20506;-76
2022/07/02 17:58:11;;;;;;;18.23;12.40;;;;;;;21.54;60.52;99977.00;8289477;28;20092;-74
2022/07/02 18:02:13;;;;;;;34.75;22.88;;;;;;;21.37;60.82;99972.72;8264945;28;20417;-75
2022/07/02 18:06:14;;;;;;;198.13;121.30;;;;;;;21.22;61.13;99966.13;8282023;28;20077;-75
2022/07/02 18:10:16;;;;;;;98.05;60.47;;;;;;;21.02;62.29;99961.72;8282280;28;20086;-75
2022/07/02 18:14:17;;;;;;;35.60;24.08;;;;;;;20.88;62.82;99955.91;8307161;28;20045;-75
2022/07/02 18:18:18;;;;;;;21.05;11.02;;;;;;;20.75;63.25;99951.66;8364369;28;20047;-75
2022/07/02 18:22:19;;;;;;;20.98;10.38;;;;;;;20.62;64.05;99948.25;8360997;28;20521;-74
2022/07/02 18:26:20;;;;;;;31.45;17.83;;;;;;;20.48;64.33;99943.19;8362954;28;20155;-76
2022/07/02 18:30:22;;;;;;;30.83;18.13;;;;;;;20.32;64.84;99942.38;8308971;28;20099;-75
2022/07/02 18:34:23;;;;;;;15.73;9.05;;;;;;;20.15;64.96;99940.72;8363654;28;20133;-75
2022/07/02 18:38:25;;;;;;;26.25;13.02;;;;;;;19.98;64.67;99945.78;8358799;28;20440;-75
2022/07/02 18:42:29;;;;;;;39.40;20.90;;;;;;;19.78;64.93;99942.88;8364319;28;20052;-74
2022/07/02 18:46:30;;;;;;;33.38;19.02;;;;;;;19.67;65.49;99952.75;8363869;28;20049;-74
2022/07/02 18:50:31;;;;;;;40.50;19.73;;;;;;;19.53;66.35;99952.34;8360395;28;20094;-75
2022/07/02 18:54:32;;;;;;;35.15;21.33;;;;;;;19.41;67.27;99949.59;8360856;28;20041;-75